Time;durP1;ratioP1;P1;durP2;ratioP2;P2;SDS_P1;SDS_P2;PMS_P1;PMS_P2;Temp;Humidity;BMP_temperature;BMP_pressure;BME280_temperature;BME280_humidity;BME280_pressure;Samples;Min_cycle;Max_cycle;Signal;HPM_P1;HPM_P2
2024/01/10 00:03:21;;;;;;;36.07;19.90;;;;;;;-12.77;100.00;99835.09;15304686;19;20031;-52
2024/01/10 00:08:45;;;;;;;39.83;20.80;;;;;;;-12.82;100.00;99823.78;15286445;19;20018;-51
2024/01/10 00:14:10;;;;;;;35.63;21.10;;;;;;;-12.77;100.00;99808.25;15282296;19;20018;-48
2024/01/10 00:19:38;;;;;;;37.87;22.60;;;;;;;-12.72;100.00;99807.44;15293129;19;20596;-49
2024/01/10 00:25:03;;;;;;;39.77;21.90;;;;;;;-12.69;100.00;99798.81;15288524;19;20082;-48
2024/01/10 00:30:28;;;;;;;40.10;21.93;;;;;;;-12.66;100.00;99800.59;15294754;19;20086;-49
2024/01/10 00:35:56;;;;;;;34.43;20.40;;;;;;;-12.65;100.00;99807.53;15287744;19;20518;-49
2024/01/10 00:41:20;;;;;;;38.53;22.17;;;;;;;-12.67;100.00;99814.44;15294987;19;20010;-48
2024/01/10 00:46:45;;;;;;;32.43;19.03;;;;;;;-12.73;100.00;99810.03;15289199;19;20010;-48
2024/01/10 00:52:12;;;;;;;34.23;18.57;;;;;;;-12.92;100.00;99803.75;15291877;19;20432;-48
2024/01/10 00:57:37;;;;;;;33.93;19.03;;;;;;;-13.01;100.00;99815.75;15292982;19;20018;-48
2024/01/10 01:03:02;;;;;;;31.70;18.70;;;;;;;-13.12;100.00;99806.97;15287412;19;20375;-48
2024/01/10 01:08:30;;;;;;;33.97;17.87;;;;;;;-13.22;100.00;99821.53;15287455;19;20438;-48
2024/01/10 01:13:54;;;;;;;34.03;19.00;;;;;;;-13.28;100.00;99816.25;15289610;19;20022;-49
2024/01/10 01:19:19;;;;;;;32.63;19.03;;;;;;;-13.25;100.00;99816.28;15289050;19;20735;-52
2024/01/10 01:24:46;;;;;;;36.27;20.47;;;;;;;-13.22;100.00;99824.13;15283921;19;20070;-47
2024/01/10 01:30:12;;;;;;;36.37;21.27;;;;;;;-13.18;100.00;99809.47;15285887;19;20082;-48
2024/01/10 01:35:36;;;;;;;35.17;20.03;;;;;;;-13.17;100.00;99811.22;15281015;19;20031;-51
2024/01/10 01:41:05;;;;;;;37.67;21.07;;;;;;;-13.17;100.00;99814.66;15290349;19;20019;-47
2024/01/10 01:46:31;;;;;;;34.90;21.47;;;;;;;-13.16;100.00;99810.38;15286463;19;20026;-48
2024/01/10 01:51:56;;;;;;;34.47;20.47;;;;;;;-13.19;100.00;99806.00;15288579;19;20021;-48
2024/01/10 01:57:23;;;;;;;32.93;20.43;;;;;;;-13.19;100.00;99805.13;15287690;19;20392;-50
2024/01/10 02:02:49;;;;;;;37.87;21.40;;;;;;;-13.27;100.00;99796.38;15287558;19;20025;-48
2024/01/10 02:08:13;;;;;;;36.00;21.23;;;;;;;-13.34;100.00;99780.72;15281642;19;20014;-49
2024/01/10 02:13:42;;;;;;;37.37;22.00;;;;;;;-13.32;100.00;99771.25;15287999;19;20035;-48
2024/01/10 02:19:21;;;;;;;36.97;20.53;;;;;;;-13.24;100.00;99770.50;15286685;19;20017;-47
2024/01/10 02:24:46;;;;;;;36.53;21.75;;;;;;;-13.25;100.00;99764.41;15280443;19;20025;-48
2024/01/10 02:30:13;;;;;;;34.87;20.53;;;;;;;-13.26;100.00;99777.38;15283630;19;20021;-51
2024/01/10 02:35:38;;;;;;;36.10;21.47;;;;;;;-13.30;100.00;99770.41;15298736;19;20351;-48
2024/01/10 02:41:03;;;;;;;34.13;19.20;;;;;;;-13.36;100.00;99772.06;15288190;19;20018;-49
2024/01/10 02:46:30;;;;;;;33.67;19.37;;;;;;;-13.41;100.00;99778.94;15297784;19;20018;-50
2024/01/10 02:51:55;;;;;;;35.60;21.03;;;;;;;-13.47;100.00;99773.69;15296503;19;20353;-48
2024/01/10 02:57:20;;;;;;;34.87;20.27;;;;;;;-13.50;100.00;99781.41;15299173;19;20371;-47
2024/01/10 03:02:47;;;;;;;32.30;19.97;;;;;;;-13.50;100.00;99784.00;15292905;19;20574;-47
2024/01/10 03:08:13;;;;;;;34.73;20.33;;;;;;;-13.51;100.00;99777.06;15295298;19;20078;-48
2024/01/10 03:13:38;;;;;;;32.53;19.43;;;;;;;-13.55;100.00;99770.97;15290564;19;20355;-47
2024/01/10 03:19:06;;;;;;;35.80;19.87;;;;;;;-13.57;100.00;99774.38;15301165;19;20010;-49
2024/01/10 03:24:30;;;;;;;37.43;22.17;;;;;;;-13.56;100.00;99770.94;15286094;19;20475;-49
2024/01/10 03:29:56;;;;;;;37.03;19.80;;;;;;;-13.58;100.00;99770.06;15290731;19;20697;-48
2024/01/10 03:35:23;;;;;;;35.57;20.57;;;;;;;-13.58;100.00;99762.28;15299311;19;20107;-48
2024/01/10 03:40:48;;;;;;;37.80;21.97;;;;;;;-13.55;100.00;99764.91;15298604;19;20021;-48
2024/01/10 03:46:13;;;;;;;34.70;21.07;;;;;;;-13.53;100.00;99752.84;15293771;19;20575;-47
2024/01/10 03:51:41;;;;;;;35.33;21.30;;;;;;;-13.51;100.00;99745.97;15293030;19;20040;-47
2024/01/10 03:57:07;;;;;;;37.47;20.87;;;;;;;-13.48;100.00;99735.66;15294628;19;20014;-48
2024/01/10 04:02:32;;;;;;;38.67;21.93;;;;;;;-13.48;100.00;99731.31;15289667;19;20014;-47
2024/01/10 04:07:59;;;;;;;37.07;20.93;;;;;;;-13.46;100.00;99722.69;15294440;19;20014;-47
2024/01/10 04:13:25;;;;;;;37.90;21.43;;;;;;;-13.48;100.00;99730.47;15293084;19;20093;-48
2024/01/10 04:18:50;;;;;;;36.00;21.13;;;;;;;-13.49;100.00;99733.91;15291629;19;20506;-47
2024/01/10 04:24:25;;;;;;;38.20;20.60;;;;;;;-13.50;100.00;99732.16;15292837;19;20486;-49
2024/01/10 04:29:49;;;;;;;36.83;21.10;;;;;;;-13.54;100.00;99731.25;15285939;19;20011;-49
2024/01/10 04:35:18;;;;;;;35.63;19.67;;;;;;;-13.55;100.00;99728.63;15288006;19;20078;-47
2024/01/10 04:40:45;;;;;;;34.90;20.43;;;;;;;-13.56;100.00;99737.25;15294231;19;20015;-48
2024/01/10 04:46:10;;;;;;;31.83;18.40;;;;;;;-13.56;100.00;99747.63;15288124;19;20018;-47
2024/01/10 04:51:36;;;;;;;33.77;19.60;;;;;;;-13.58;100.00;99733.78;15288287;19;20010;-47
2024/01/10 04:57:03;;;;;;;35.77;20.90;;;;;;;-13.59;100.00;99735.50;15293994;19;20025;-51
2024/01/10 05:02:28;;;;;;;37.73;21.83;;;;;;;-13.56;100.00;99738.13;15288658;19;20093;-49
2024/01/10 05:07:53;;;;;;;39.33;23.17;;;;;;;-13.55;100.00;99728.63;15277336;19;20020;-44
2024/01/10 05:13:21;;;;;;;46.57;24.10;;;;;;;-13.51;100.00;99736.44;15289871;19;20097;-43
2024/01/10 05:18:54;;;;;;;48.53;24.33;;;;;;;-13.48;100.00;99720.94;15291032;19;20037;-44
2024/01/10 05:24:20;;;;;;;44.30;24.07;;;;;;;-13.43;100.00;99738.31;15284061;19;20251;-43
2024/01/10 05:29:47;;;;;;;52.03;26.47;;;;;;;-13.38;100.00;99734.00;15280996;19;20028;-42
2024/01/10 05:35:13;;;;;;;44.83;23.67;;;;;;;-13.32;100.00;99729.75;15281251;19;20010;-42
2024/01/10 05:40:38;;;;;;;38.53;21.77;;;;;;;-13.38;100.00;99723.63;15278129;19;20069;-43
2024/01/10 05:46:05;;;;;;;36.13;21.67;;;;;;;-13.46;100.00;99733.06;15279849;19;20026;-44
2024/01/10 05:51:30;;;;;;;35.20;20.47;;;;;;;-13.66;100.00;99731.94;15288551;19;20006;-43
2024/01/10 05:56:54;;;;;;;35.37;21.20;;;;;;;-13.75;100.00;99739.59;15281783;19;20018;-43
2024/01/10 06:02:22;;;;;;;38.30;21.73;;;;;;;-13.76;100.00;99739.56;15291832;19;20031;-44
2024/01/10 06:07:53;;;;;;;37.83;20.67;;;;;;;-13.76;100.00;99730.06;15298324;19;20025;-43
2024/01/10 06:13:17;;;;;;;35.97;21.13;;;;;;;-13.75;100.00;99729.22;15298597;19;20022;-44
2024/01/10 06:18:45;;;;;;;39.47;20.60;;;;;;;-13.79;100.00;99735.19;15303122;19;20351;-44
2024/01/10 06:24:10;;;;;;;35.73;21.00;;;;;;;-13.88;100.00;99724.72;15311492;19;20020;-43
2024/01/10 06:29:34;;;;;;;37.47;20.17;;;;;;;-13.93;100.00;99724.63;15292958;19;20098;-45
2024/01/10 06:35:04;;;;;;;38.00;21.10;;;;;;;-13.90;100.00;99729.00;15304593;19;20089;-43
2024/01/10 06:40:29;;;;;;;37.87;21.83;;;;;;;-13.91;100.00;99728.13;15302242;19;20041;-42
2024/01/10 06:45:54;;;;;;;35.97;22.83;;;;;;;-13.87;100.00;99742.00;15293997;19;20034;-44
2024/01/10 06:51:22;;;;;;;37.20;21.27;;;;;;;-13.81;100.00;99736.88;15292592;19;19998;-43
2024/01/10 06:56:46;;;;;;;36.33;21.17;;;;;;;-13.73;100.00;99747.38;15299958;19;20090;-44
2024/01/10 07:02:11;;;;;;;36.50;21.07;;;;;;;-13.67;100.00;99750.94;15296115;19;20025;-43
2024/01/10 07:07:38;;;;;;;35.80;20.93;;;;;;;-13.57;100.00;99745.88;15296578;19;20105;-43
2024/01/10 07:13:04;;;;;;;38.43;21.70;;;;;;;-13.48;100.00;99749.47;15299872;19;20014;-43
2024/01/10 07:18:30;;;;;;;33.83;20.57;;;;;;;-13.40;100.00;99744.38;15301230;19;20078;-44
2024/01/10 07:23:59;;;;;;;35.27;20.80;;;;;;;-13.29;100.00;99748.81;15299555;19;20558;-45
2024/01/10 07:29:24;;;;;;;35.60;20.53;;;;;;;-13.23;100.00;99752.34;15295069;19;20086;-44
2024/01/10 07:34:49;;;;;;;37.97;20.43;;;;;;;-13.13;100.00;99750.75;15294886;19;20094;-45
2024/01/10 07:40:16;;;;;;;36.23;21.60;;;;;;;-13.04;100.00;99758.66;15299641;19;20019;-45
2024/01/10 07:45:41;;;;;;;37.07;21.73;;;;;;;-12.95;100.00;99757.88;15299673;19;20371;-45
2024/01/10 07:51:06;;;;;;;40.30;22.23;;;;;;;-12.84;100.00;99760.59;15302319;19;20014;-46
2024/01/10 07:56:34;;;;;;;36.40;21.10;;;;;;;-12.76;100.00;99758.09;15295589;19;20021;-43
2024/01/10 08:01:59;;;;;;;35.87;21.13;;;;;;;-12.68;100.00;99761.63;15296394;19;20463;-44
2024/01/10 08:07:32;;;;;;;34.90;20.83;;;;;;;-12.60;100.00;99760.00;15295737;19;20648;-44
2024/01/10 08:13:00;;;;;;;38.33;21.70;;;;;;;-12.51;100.00;99767.00;15297364;19;20038;-44
2024/01/10 08:18:25;;;;;;;39.60;22.90;;;;;;;-12.41;100.00;99766.25;15259621;19;20093;-44
2024/01/10 08:23:49;;;;;;;37.93;20.90;;;;;;;-12.31;100.00;99777.59;15286717;19;20617;-45
2024/01/10 08:29:17;;;;;;;43.10;24.00;;;;;;;-12.16;100.00;99774.25;15282011;19;20010;-44
2024/01/10 08:34:44;;;;;;;46.77;25.20;;;;;;;-11.96;100.00;99777.00;15284112;19;20015;-47
2024/01/10 08:40:11;;;;;;;48.53;25.60;;;;;;;-11.80;100.00;99771.94;15281332;19;20362;-44
2024/01/10 08:45:39;;;;;;;50.23;26.37;;;;;;;-11.66;100.00;99772.00;15279859;19;20436;-45
2024/01/10 08:51:04;;;;;;;56.10;28.60;;;;;;;-11.49;100.00;99766.91;15277501;19;20025;-46
2024/01/10 08:56:30;;;;;;;52.97;28.10;;;;;;;-11.35;100.00;99761.81;15280885;19;20021;-45
2024/01/10 09:01:57;;;;;;;53.00;28.10;;;;;;;-11.27;100.00;99760.13;15240382;19;20573;-45
2024/01/10 09:07:28;;;;;;;55.07;28.27;;;;;;;-11.18;100.00;99767.13;15272658;19;20018;-44
2024/01/10 09:12:52;;;;;;;56.63;28.60;;;;;;;-11.07;100.00;99756.75;15278341;19;20031;-46
2024/01/10 09:18:20;;;;;;;54.67;27.23;;;;;;;-10.94;100.00;99758.53;15277181;19;20534;-46
2024/01/10 09:23:44;;;;;;;55.90;28.57;;;;;;;-10.91;100.00;99753.34;15278296;19;20018;-44
2024/01/10 09:29:09;;;;;;;57.77;29.87;;;;;;;-10.81;100.00;99758.56;15274703;19;20021;-46
2024/01/10 09:34:36;;;;;;;55.83;28.33;;;;;;;-10.76;100.00;99749.91;15278399;19;20014;-50
2024/01/10 09:40:01;;;;;;;54.47;28.27;;;;;;;-10.68;100.00;99747.34;15269965;19;20014;-45
2024/01/10 09:45:28;;;;;;;58.10;27.37;;;;;;;-10.66;100.00;99753.44;15293219;19;20022;-45
2024/01/10 09:50:59;;;;;;;52.57;28.73;;;;;;;-10.59;100.00;99739.53;15288019;19;20019;-44
2024/01/10 09:56:24;;;;;;;56.65;31.77;;;;;;;-10.50;100.00;99732.59;15291768;19;20042;-44
2024/01/10 10:01:48;;;;;;;59.87;30.17;;;;;;;-10.47;100.00;99723.09;15037977;19;5000885;-49
2024/01/10 10:07:15;;;;;;;54.77;29.90;;;;;;;-10.42;100.00;99725.69;15292251;19;20022;-46
2024/01/10 10:12:52;;;;;;;64.73;32.30;;;;;;;-10.25;100.00;99723.91;15284263;19;20032;-48
2024/01/10 10:18:17;;;;;;;55.67;29.03;;;;;;;-10.01;100.00;99716.97;15287912;19;20018;-47
2024/01/10 10:23:46;;;;;;;54.63;30.07;;;;;;;-9.76;100.00;99714.34;15288295;19;20017;-50
2024/01/10 10:29:12;;;;;;;59.70;30.03;;;;;;;-9.54;100.00;99715.19;15288923;19;20032;-45
2024/01/10 10:34:40;;;;;;;60.47;32.67;;;;;;;-9.39;100.00;99709.06;15297735;19;20430;-44
2024/01/10 10:40:09;;;;;;;59.20;31.87;;;;;;;-9.19;100.00;99708.09;15297362;19;20040;-45
2024/01/10 10:45:34;;;;;;;58.10;30.67;;;;;;;-9.11;100.00;99701.09;15292202;19;20090;-45
2024/01/10 10:51:07;;;;;;;48.30;27.35;;;;;;;-9.03;100.00;99698.47;15292163;19;20082;-47
2024/01/10 10:56:39;;;;;;;55.03;29.05;;;;;;;-9.04;100.00;99708.03;15289384;19;20077;-45
2024/01/10 11:02:05;;;;;;;57.22;30.23;;;;;;;-9.00;100.00;99709.78;15293243;19;20010;-45
2024/01/10 11:07:30;;;;;;;54.22;29.80;;;;;;;-8.95;100.00;99706.25;15291782;19;20014;-83
2024/01/10 11:13:20;;;;;;;54.28;29.63;;;;;;;-8.92;100.00;99704.50;15312596;19;20006;-82
2024/01/10 11:18:56;;;;;;;;;;;;;;;-8.84;100.00;99705.34;15310357;19;20011;-81
2024/01/10 11:24:21;;;;;;;62.53;30.25;;;;;;;-8.67;100.00;99694.81;15349104;19;19921;-78
2024/01/10 11:29:50;;;;;;;50.55;29.60;;;;;;;-8.58;100.00;99690.38;15322021;19;20031;-83
2024/01/10 11:35:24;;;;;;;52.95;29.73;;;;;;;-8.46;100.00;99682.44;15309301;19;20031;-83
2024/01/10 11:40:57;;;;;;;57.25;31.63;;;;;;;-8.26;100.00;99676.16;15287826;19;20049;-55
2024/01/10 11:46:29;;;;;;;54.05;31.90;;;;;;;-8.09;100.00;99676.91;15286794;19;20036;-56
2024/01/10 11:51:56;;;;;;;49.23;29.87;;;;;;;-7.95;100.00;99660.22;15282931;19;20014;-56
2024/01/10 11:57:24;;;;;;;53.53;29.75;;;;;;;-7.82;100.00;99660.97;15288316;19;20372;-56
2024/01/10 12:02:56;;;;;;;54.95;30.20;;;;;;;-7.78;100.00;99642.59;15285617;19;20014;-56
2024/01/10 12:08:21;;;;;;;48.05;29.88;;;;;;;-7.69;100.00;99639.03;15287726;19;20462;-56
2024/01/10 12:13:46;;;;;;;51.72;31.25;;;;;;;-7.46;100.00;99643.13;15288445;19;20018;-53
2024/01/10 12:19:13;;;;;;;52.30;31.48;;;;;;;-7.24;100.00;99641.13;15284020;19;20028;-52
2024/01/10 12:24:39;;;;;;;53.25;32.28;;;;;;;-7.00;100.00;99637.31;15283944;19;20082;-56
2024/01/10 12:30:05;;;;;;;49.17;30.05;;;;;;;-6.79;100.00;99639.66;15280045;19;20022;-56
2024/01/10 12:35:33;;;;;;;55.60;31.30;;;;;;;-6.62;100.00;99650.75;15286204;19;20014;-56
2024/01/10 12:40:58;;;;;;;49.22;29.80;;;;;;;-6.45;100.00;99660.13;15286221;19;20023;-53
2024/01/10 12:46:23;;;;;;;52.00;30.05;;;;;;;-6.46;100.00;99655.75;15287862;19;20026;-54
2024/01/10 12:51:51;;;;;;;49.20;30.55;;;;;;;-6.46;100.00;99653.13;15285069;19;20014;-56
2024/01/10 12:57:16;;;;;;;50.80;29.88;;;;;;;-6.43;100.00;99648.69;15289262;19;20037;-58
2024/01/10 13:02:41;;;;;;;48.47;29.73;;;;;;;-6.25;100.00;99631.81;15286917;19;20090;-53
2024/01/10 13:08:08;;;;;;;46.67;28.77;;;;;;;-6.13;100.00;99638.63;15283342;19;20620;-54
2024/01/10 13:13:33;;;;;;;49.20;29.88;;;;;;;-6.11;100.00;99642.06;15282664;19;20546;-54
2024/01/10 13:18:59;;;;;;;49.80;29.27;;;;;;;-6.22;100.00;99637.00;15281947;19;20363;-57
2024/01/10 13:24:26;;;;;;;49.85;28.40;;;;;;;-6.12;100.00;99634.22;15284005;19;20078;-57
2024/01/10 13:29:51;;;;;;;45.35;28.83;;;;;;;-6.03;100.00;99639.31;15278724;19;20032;-54
2024/01/10 13:35:16;;;;;;;45.20;27.30;;;;;;;-5.55;100.00;99640.16;15286408;19;20022;-55
2024/01/10 13:40:44;;;;;;;43.40;27.75;;;;;;;-5.73;100.00;99629.13;15285085;19;20074;-57
2024/01/10 13:46:08;;;;;;;46.65;28.42;;;;;;;-5.72;100.00;99646.59;15286699;19;20045;-57
2024/01/10 13:51:33;;;;;;;39.00;27.30;;;;;;;-5.61;100.00;99655.16;15283353;19;20478;-56
2024/01/10 13:57:01;;;;;;;48.60;27.98;;;;;;;-5.64;100.00;99656.94;15280507;19;20064;-55
2024/01/10 14:02:26;;;;;;;39.95;26.27;;;;;;;-5.77;100.00;99656.31;15298232;19;20014;-57
2024/01/10 14:07:50;;;;;;;42.88;27.85;;;;;;;-5.54;100.00;99655.00;15284172;19;20112;-57
2024/01/10 14:13:18;;;;;;;41.03;26.88;;;;;;;-5.48;100.00;99663.63;15282642;19;20857;-57
2024/01/10 14:18:43;;;;;;;43.33;28.23;;;;;;;-5.51;100.00;99654.97;15279776;19;20015;-57
2024/01/10 14:24:10;;;;;;;43.15;26.52;;;;;;;-5.71;100.00;99658.84;15279761;19;20018;-57
2024/01/10 14:29:37;;;;;;;40.92;27.92;;;;;;;-5.98;100.00;99665.41;15286171;19;20007;-57
2024/01/10 14:35:02;;;;;;;46.25;26.90;;;;;;;-6.16;100.00;99658.75;15298410;19;20211;-53
2024/01/10 14:40:33;;;;;;;44.33;28.98;;;;;;;-5.98;100.00;99650.56;15270211;19;20533;-52
2024/01/10 14:46:00;;;;;;;41.22;27.08;;;;;;;-5.71;100.00;99648.34;15294064;19;20014;-57
2024/01/10 14:51:25;;;;;;;39.60;26.23;;;;;;;-5.61;100.00;99643.75;15294470;19;20019;-55
2024/01/10 14:56:51;;;;;;;43.53;27.65;;;;;;;-5.72;100.00;99657.09;15292259;19;20025;-57
2024/01/10 15:02:18;;;;;;;43.47;27.77;;;;;;;-5.93;100.00;99661.81;15292290;19;20022;-55
2024/01/10 15:07:44;;;;;;;47.35;28.65;;;;;;;-6.22;100.00;99658.00;15293885;19;20026;-55
2024/01/10 15:13:09;;;;;;;46.90;30.08;;;;;;;-6.44;100.00;99664.47;15291600;19;20479;-54
2024/01/10 15:18:36;;;;;;;47.28;30.80;;;;;;;-6.61;100.00;99676.06;15291333;19;20029;-55
2024/01/10 15:24:01;;;;;;;55.10;33.83;;;;;;;-6.82;100.00;99685.13;15292859;19;20027;-57
2024/01/10 15:29:27;;;;;;;53.55;32.88;;;;;;;-7.10;100.00;99676.72;15288096;19;20018;-56
2024/01/10 15:34:55;;;;;;;55.53;35.00;;;;;;;-7.32;100.00;99679.63;15288524;19;20497;-54
2024/01/10 15:40:26;;;;;;;61.03;35.38;;;;;;;-7.44;100.00;99673.63;15285703;19;20024;-55
2024/01/10 15:45:50;;;;;;;52.28;34.30;;;;;;;-7.51;100.00;99665.88;15291921;19;20014;-57
2024/01/10 15:51:18;;;;;;;56.03;33.42;;;;;;;-7.60;100.00;99680.78;15288117;19;20014;-54
2024/01/10 15:56:43;;;;;;;55.80;32.85;;;;;;;-7.74;100.00;99685.28;15287200;19;20018;-51
2024/01/10 16:02:07;;;;;;;52.03;32.58;;;;;;;-7.83;100.00;99685.38;15291090;19;20025;-52
2024/01/10 16:07:35;;;;;;;55.25;31.13;;;;;;;-7.94;100.00;99690.75;15282832;19;20018;-51
2024/01/10 16:13:01;;;;;;;48.30;31.33;;;;;;;-8.01;100.00;99699.50;15289639;19;20015;-55
2024/01/10 16:18:27;;;;;;;52.33;32.70;;;;;;;-8.12;100.00;99704.84;15290514;19;20073;-56
2024/01/10 16:23:56;;;;;;;55.85;33.13;;;;;;;-8.19;100.00;99698.78;15292010;19;20039;-54
2024/01/10 16:29:22;;;;;;;52.53;33.28;;;;;;;-8.27;100.00;99698.84;15285021;19;20019;-56
2024/01/10 16:34:46;;;;;;;53.80;32.70;;;;;;;-8.33;100.00;99696.25;15283706;19;20016;-53
2024/01/10 16:40:16;;;;;;;57.78;35.22;;;;;;;-8.39;100.00;99702.41;15278159;19;20014;-54
2024/01/10 16:45:41;;;;;;;;;;;;;;;-8.52;100.00;99696.44;15290558;19;20025;-53
2024/01/10 16:51:06;;;;;;;55.15;32.92;;;;;;;-8.56;100.00;99693.84;15286128;19;20266;-50
2024/01/10 16:56:34;;;;;;;53.55;33.08;;;;;;;-8.60;100.00;99702.59;15287341;19;20018;-52
2024/01/10 17:01:59;;;;;;;55.10;34.30;;;;;;;-8.63;100.00;99713.03;15288019;19;20045;-53
2024/01/10 17:07:24;;;;;;;50.60;31.30;;;;;;;-8.68;100.00;99719.19;15283697;19;20018;-56
2024/01/10 17:12:58;;;;;;;53.40;32.50;;;;;;;-8.70;100.00;99718.31;15264986;19;20018;-47
2024/01/10 17:18:23;;;;;;;55.05;31.65;;;;;;;-8.74;100.00;99715.75;15281790;19;20019;-48
2024/01/10 17:23:48;;;;;;;50.47;32.55;;;;;;;-8.78;100.00;99714.91;15287139;19;20007;-51
2024/01/10 17:29:15;;;;;;;53.03;33.53;;;;;;;-8.82;100.00;99713.16;15293425;19;20753;-49
2024/01/10 17:34:40;;;;;;;52.92;33.67;;;;;;;-8.87;100.00;99714.91;15273017;19;20033;-47
2024/01/10 17:40:07;;;;;;;51.95;32.20;;;;;;;-8.92;100.00;99711.47;15277144;19;20074;-47
2024/01/10 17:45:35;;;;;;;50.83;31.02;;;;;;;-8.96;100.00;99713.25;15271299;19;20017;-48
2024/01/10 17:51:01;;;;;;;50.92;29.48;;;;;;;-9.01;100.00;99707.16;15283778;19;20085;-47
2024/01/10 17:56:27;;;;;;;51.20;32.42;;;;;;;-9.06;100.00;99707.19;15286306;19;20082;-47
2024/01/10 18:01:55;;;;;;;50.15;29.48;;;;;;;-9.13;100.00;99702.88;15295611;19;20600;-49
2024/01/10 18:07:21;;;;;;;51.65;31.90;;;;;;;-9.21;100.00;99702.00;15301273;19;20015;-47
2024/01/10 18:12:45;;;;;;;53.35;33.15;;;;;;;-9.24;100.00;99708.13;15300018;19;20024;-48
2024/01/10 18:18:13;;;;;;;52.83;32.72;;;;;;;-9.31;100.00;99715.09;15300288;19;20081;-48
2024/01/10 18:23:38;;;;;;;56.63;30.90;;;;;;;-9.37;100.00;99728.19;15292699;19;20691;-48
2024/01/10 18:29:02;;;;;;;48.60;30.27;;;;;;;-9.45;100.00;99722.97;15301147;19;20362;-47
2024/01/10 18:34:30;;;;;;;55.58;31.00;;;;;;;-9.49;100.00;99725.59;15295026;19;20026;-46
2024/01/10 18:39:55;;;;;;;57.27;35.40;;;;;;;-9.55;100.00;99725.59;15294541;19;20034;-47
2024/01/10 18:45:21;;;;;;;73.75;37.28;;;;;;;-9.62;100.00;99730.84;15300160;19;20026;-50
2024/01/10 18:50:48;;;;;;;68.68;37.95;;;;;;;-9.65;100.00;99719.56;15295055;19;20488;-47
2024/01/10 18:56:14;;;;;;;63.72;35.67;;;;;;;-9.69;100.00;99729.09;15294548;19;20082;-48
2024/01/10 19:01:38;;;;;;;64.40;35.22;;;;;;;-9.73;100.00;99722.19;15295303;19;20027;-48
2024/01/10 19:07:06;;;;;;;68.50;36.53;;;;;;;-9.75;100.00;99719.56;15299047;19;20021;-46
2024/01/10 19:12:30;;;;;;;74.37;40.33;;;;;;;-9.79;100.00;99711.72;15294549;19;20022;-46
2024/01/10 19:17:55;;;;;;;65.23;37.53;;;;;;;-9.84;100.00;99716.09;15295582;19;20082;-48
2024/01/10 19:23:22;;;;;;;59.25;34.45;;;;;;;-9.95;100.00;99711.78;15294254;19;20027;-49
2024/01/10 19:28:47;;;;;;;65.97;37.77;;;;;;;-9.96;100.00;99719.56;15292853;19;20477;-47
2024/01/10 19:34:11;;;;;;;63.00;37.23;;;;;;;-9.98;100.00;99722.19;15294706;19;20020;-47
2024/01/10 19:39:38;;;;;;;76.50;40.73;;;;;;;-10.01;100.00;99718.72;15296211;19;20018;-47
2024/01/10 19:45:04;;;;;;;59.60;35.03;;;;;;;-10.05;100.00;99715.22;15296725;19;20015;-45
2024/01/10 19:50:29;;;;;;;60.03;35.60;;;;;;;-10.10;100.00;99709.16;15288956;19;20021;-46
2024/01/10 19:55:56;;;;;;;58.97;35.13;;;;;;;-10.15;100.00;99709.16;15290376;19;20504;-45
2024/01/10 20:01:21;;;;;;;62.23;35.70;;;;;;;-10.19;100.00;99711.78;15288610;19;20014;-49
2024/01/10 20:06:45;;;;;;;60.37;34.93;;;;;;;-10.23;100.00;99714.38;15291345;19;20026;-46
2024/01/10 20:12:12;;;;;;;61.07;35.23;;;;;;;-10.28;100.00;99713.50;15291940;19;20086;-46
2024/01/10 20:17:39;;;;;;;63.50;35.57;;;;;;;-10.33;100.00;99710.03;15289486;19;20467;-47
2024/01/10 20:23:04;;;;;;;70.47;38.90;;;;;;;-10.36;100.00;99697.00;15284958;19;20021;-47
2024/01/10 20:28:32;;;;;;;67.27;39.87;;;;;;;-10.35;100.00;99714.38;15287262;19;20018;-50
2024/01/10 20:33:57;;;;;;;71.60;41.57;;;;;;;-10.37;100.00;99713.50;15289842;19;20025;-48
2024/01/10 20:39:22;;;;;;;75.13;44.13;;;;;;;-10.37;100.00;99718.69;15288622;19;20018;-47
2024/01/10 20:44:50;;;;;;;73.93;42.43;;;;;;;-10.39;100.00;99730.88;15289794;19;20035;-46
2024/01/10 20:50:17;;;;;;;70.40;39.60;;;;;;;-10.42;100.00;99739.56;15287907;19;20037;-47
2024/01/10 20:55:43;;;;;;;72.10;39.80;;;;;;;-10.45;100.00;99741.31;15286915;19;20025;-47
2024/01/10 21:01:10;;;;;;;76.07;42.50;;;;;;;-10.48;100.00;99757.81;15282423;19;20018;-47
2024/01/10 21:06:35;;;;;;;76.93;43.50;;;;;;;-10.47;100.00;99756.94;15290463;19;20467;-48
2024/01/10 21:12:02;;;;;;;73.87;41.10;;;;;;;-10.47;100.00;99754.34;15289291;19;20358;-45
2024/01/10 21:17:31;;;;;;;81.73;42.80;;;;;;;-10.49;100.00;99734.34;15286208;19;20031;-48
2024/01/10 21:22:56;;;;;;;77.43;43.90;;;;;;;-10.54;100.00;99742.16;15289161;19;20014;-48
2024/01/10 21:28:21;;;;;;;67.50;38.77;;;;;;;-10.58;100.00;99725.66;15285649;19;20022;-48
2024/01/10 21:33:48;;;;;;;72.17;40.80;;;;;;;-10.61;100.00;99730.84;15273141;19;20372;-48
2024/01/10 21:39:13;;;;;;;73.00;41.73;;;;;;;-10.63;100.00;99729.97;15280580;19;20051;-47
2024/01/10 21:44:37;;;;;;;75.73;41.97;;;;;;;-10.63;100.00;99743.00;15285218;19;20050;-48
2024/01/10 21:50:04;;;;;;;71.87;40.17;;;;;;;-10.63;100.00;99742.13;15286473;19;20018;-48
2024/01/10 21:55:29;;;;;;;70.93;40.90;;;;;;;-10.64;100.00;99750.81;15280914;19;20415;-48
2024/01/10 22:00:54;;;;;;;68.47;39.60;;;;;;;-10.64;100.00;99748.22;15285199;19;20471;-50
2024/01/10 22:06:21;;;;;;;64.03;36.83;;;;;;;-10.63;100.00;99766.44;15281495;19;20431;-51
2024/01/10 22:11:46;;;;;;;63.93;37.77;;;;;;;-10.65;100.00;99776.00;15285880;19;20074;-50
2024/01/10 22:17:10;;;;;;;61.93;37.10;;;;;;;-10.67;100.00;99775.13;15283795;19;20082;-49
2024/01/10 22:22:37;;;;;;;60.33;35.53;;;;;;;-10.68;100.00;99781.19;15279762;19;20018;-50
2024/01/10 22:28:02;;;;;;;59.23;34.23;;;;;;;-10.68;100.00;99778.59;15280455;19;20114;-49
2024/01/10 22:33:27;;;;;;;60.93;35.87;;;;;;;-10.65;100.00;99780.31;15280560;19;20014;-48
2024/01/10 22:38:54;;;;;;;63.97;35.97;;;;;;;-10.65;100.00;99782.94;15274633;19;20025;-51
2024/01/10 22:44:19;;;;;;;68.60;36.57;;;;;;;-10.66;100.00;99784.69;15277665;19;20025;-52
2024/01/10 22:49:43;;;;;;;66.23;36.90;;;;;;;-10.75;100.00;99775.09;15297011;19;20019;-48
2024/01/10 22:55:11;;;;;;;66.77;37.07;;;;;;;-10.75;100.00;99780.31;15296457;19;20033;-52
2024/01/10 23:00:35;;;;;;;69.67;39.47;;;;;;;-10.81;100.00;99780.25;15297852;19;20017;-49
2024/01/10 23:06:00;;;;;;;68.63;38.83;;;;;;;-10.85;100.00;99788.94;15297551;19;20078;-47
2024/01/10 23:11:27;;;;;;;66.40;37.13;;;;;;;-10.92;100.00;99790.66;15291322;19;20022;-50
2024/01/10 23:16:52;;;;;;;74.03;41.00;;;;;;;-10.97;100.00;99792.34;15289770;19;20487;-52
2024/01/10 23:22:16;;;;;;;63.53;36.43;;;;;;;-10.96;100.00;99785.44;15295553;19;20340;-47
2024/01/10 23:27:44;;;;;;;60.30;34.63;;;;;;;-10.95;100.00;99772.41;15298405;19;20723;-49
2024/01/10 23:33:09;;;;;;;57.33;34.10;;;;;;;-11.02;100.00;99770.66;15292770;19;20014;-49
2024/01/10 23:38:34;;;;;;;56.00;34.63;;;;;;;-11.09;100.00;99772.34;15297668;19;20021;-48
2024/01/10 23:44:01;;;;;;;60.10;35.80;;;;;;;-11.12;100.00;99769.72;15287067;19;20089;-48
2024/01/10 23:49:26;;;;;;;58.67;34.10;;;;;;;-11.16;100.00;99776.66;15296852;19;20007;-48
2024/01/10 23:54:50;;;;;;;58.17;34.13;;;;;;;-11.18;100.00;99770.56;15295042;19;20094;-50
